Time;durP1;ratioP1;P1;durP2;ratioP2;P2;SDS_P1;SDS_P2;PMS_P1;PMS_P2;Temp;Humidity;BMP_temperature;BMP_pressure;BME280_temperature;BME280_humidity;BME280_pressure;Samples;Min_cycle;Max_cycle;Signal;HPM_P1;HPM_P2
2023/04/09 00:01:36;;;;;;;;;;;;;;;;;;4923973;29;19916;-84
2023/04/09 00:04:12;;;;;;;;;;;;;;;;;;4937738;29;19923;-84
2023/04/09 00:06:38;;;;;;;;;;;;;;;;;;4905675;29;19915;-83
2023/04/09 00:09:19;;;;;;;;;;;;;;;;;;4910149;29;19919;-83
2023/04/09 00:11:48;;;;;;;;;;;;;;;;;;4902172;29;19940;-83
2023/04/09 00:14:13;;;;;;;;;;;;;;;;;;4917470;29;19919;-82
2023/04/09 00:16:47;;;;;;;;;;;;;;;;;;4900966;29;19922;-82
2023/04/09 00:19:18;;;;;;;;;;;;;;;;;;4900603;29;19916;-82
2023/04/09 00:21:44;;;;;;;;;;;;;;;;;;4918757;29;19915;-82
2023/04/09 00:24:10;;;;;;;;;;;;;;;;;;4921971;29;19931;-82
2023/04/09 00:26:35;;;;;;;;;;;;;;;;;;4909492;29;19931;-84
2023/04/09 00:29:04;;;;;;;;;;;;;;;;;;4925850;29;19923;-83
2023/04/09 00:31:37;;;;;;;;;;;;;;;;;;4910566;29;19976;-84
2023/04/09 00:34:06;;;;;;;;;;;;;;;;;;4910185;29;19927;-84
2023/04/09 00:36:35;;;;;;;;;;;;;;;;;;4909948;29;19939;-85
2023/04/09 00:39:00;;;;;;;;;;;;;;;;;;4921816;29;19946;-84
2023/04/09 00:41:34;;;;;;;;;;;;;;;;;;4905215;29;19916;-84
2023/04/09 00:44:19;;;;;;;;;;;;;;;;;;;;;
2023/04/09 00:46:47;;;;;;;;;;;;;;;;;;4906034;29;19900;-84
2023/04/09 00:49:25;;;;;;;;;;;;;;;;;;4924134;29;19911;-85
2023/04/09 00:51:51;;;;;;;;;;;;;;;;;;4923058;29;19915;-84
2023/04/09 00:54:17;;;;;;;;;;;;;;;;;;4908716;29;19962;-84
2023/04/09 00:56:48;;;;;;;;;;;;;;;;;;4906097;29;19979;-84
2023/04/09 00:59:26;;;;;;;;;;;;;;;;;;4919382;29;19920;-83
2023/04/09 01:20:35;;;;;;;;;;;;;;;;;;4904167;29;19912;-82
2023/04/09 01:23:03;;;;;;;;;;;;;;;;;;4906775;29;19935;-84
2023/04/09 01:25:29;;;;;;;;;;;;;;;;;;4906307;29;19916;-82
2023/04/09 01:28:00;;;;;;;;;;;;;;;;;;4891295;29;19920;-81
2023/04/09 01:30:25;;;;;;;;;;;;;;;;;;4927989;23;19911;-82
2023/04/09 01:32:51;;;;;;;;;;;;;;;;;;4943931;28;19903;-81
2023/04/09 01:35:19;;;;;;;;;;;;;;;;;;4928349;29;19919;-83
2023/04/09 01:37:45;;;;;;;;;;;;;;;;;;4961848;28;19991;-83
2023/04/09 01:40:11;;;;;;;;;;;;;;;;;;4961235;29;19914;-83
2023/04/09 01:42:36;;;;;;;;;;;;;;;;;;4945114;29;19930;-83
2023/04/09 01:45:02;;;;;;;;;;;;;;;;;;4960949;29;19899;-83
2023/04/09 01:47:29;;;;;;;;;;;;;;;;;;4961640;29;19899;-83
2023/04/09 01:49:57;;;;;;;;;;;;;;;;;;4962141;28;19925;-84
2023/04/09 01:52:23;;;;;;;;;;;;;;;;;;4949501;28;19903;-83
2023/04/09 01:54:48;;;;;;;;;;;;;;;;;;4942516;28;19919;-83
2023/04/09 01:57:17;;;;;;;;;;;;;;;;;;4925978;29;19922;-83
2023/04/09 01:59:43;;;;;;;;;;;;;;;;;;4926520;29;19986;-83
2023/04/09 02:02:11;;;;;;;;;;;;;;;;;;4926015;29;19903;-83
2023/04/09 02:04:39;;;;;;;;;;;;;;;;;;4909717;29;19899;-83
2023/04/09 02:07:07;;;;;;;;;;;;;;;;;;4940051;29;19939;-83
2023/04/09 02:09:36;;;;;;;;;;;;;;;;;;4911029;29;19915;-84
2023/04/09 02:12:02;;;;;;;;;;;;;;;;;;4921850;29;19916;-84
2023/04/09 02:14:29;;;;;;;;;;;;;;;;;;4921594;29;19922;-83
2023/04/09 02:16:55;;;;;;;;;;;;;;;;;;4920777;29;19989;-83
2023/04/09 02:19:20;;;;;;;;;;;;;;;;;;4920797;29;19941;-83
2023/04/09 02:21:46;;;;;;;;;;;;;;;;;;4905328;29;19955;-83
2023/04/09 02:24:12;;;;;;;;;;;;;;;;;;4903904;29;19915;-83
2023/04/09 02:26:40;;;;;;;;;;;;;;;;;;4903712;29;19915;-83
2023/04/09 02:29:11;;;;;;;;;;;;;;;;;;4905709;29;19983;-83
2023/04/09 02:31:44;;;;;;;;;;;;;;;;;;4919880;29;19903;-83
2023/04/09 02:34:13;;;;;;;;;;;;;;;;;;4904770;29;19899;-83
2023/04/09 02:36:41;;;;;;;;;;;;;;;;;;4937235;29;19915;-83
2023/04/09 02:39:09;;;;;;;;;;;;;;;;;;4905986;29;20005;-83
2023/04/09 02:41:35;;;;;;;;;;;;;;;;;;4921296;29;19899;-84
2023/04/09 02:44:00;;;;;;;;;;;;;;;;;;4905243;29;19947;-84
2023/04/09 02:46:26;;;;;;;;;;;;;;;;;;4922763;29;19916;-83
2023/04/09 02:48:52;;;;;;;;;;;;;;;;;;4921874;29;20272;-84
2023/04/09 02:51:18;;;;;;;;;;;;;;;;;;4904327;29;19943;-83
2023/04/09 02:53:44;;;;;;;;;;;;;;;;;;4920222;29;19925;-84
2023/04/09 02:56:10;;;;;;;;;;;;;;;;;;4920730;29;19940;-84
2023/04/09 02:58:38;;;;;;;;;;;;;;;;;;4920458;29;19899;-83
2023/04/09 03:01:04;;;;;;;;;;;;;;;;;;4921952;29;19927;-83
2023/04/09 03:03:32;;;;;;;;;;;;;;;;;;4907004;29;19976;-84
2023/04/09 03:05:58;;;;;;;;;;;;;;;;;;4922899;29;19931;-84
2023/04/09 03:08:27;;;;;;;;;;;;;;;;;;4923271;29;19986;-84
2023/04/09 03:10:52;;;;;;;;;;;;;;;;;;4923151;29;19927;-83
2023/04/09 03:13:20;;;;;;;;;;;;;;;;;;4923319;29;19920;-83
2023/04/09 03:15:48;;;;;;;;;;;;;;;;;;4921821;29;19939;-84
2023/04/09 03:18:14;;;;;;;;;;;;;;;;;;4921463;29;19906;-84
2023/04/09 03:20:43;;;;;;;;;;;;;;;;;;4906131;29;19920;-84
2023/04/09 03:23:14;;;;;;;;;;;;;;;;;;4922688;29;19916;-84
2023/04/09 03:25:45;;;;;;;;;;;;;;;;;;4907159;29;19920;-83
2023/04/09 03:28:17;;;;;;;;;;;;;;;;;;4891988;29;19923;-83
2023/04/09 03:30:46;;;;;;;;;;;;;;;;;;4910780;29;19908;-84
2023/04/09 03:33:16;;;;;;;;;;;;;;;;;;4926256;29;19919;-82
2023/04/09 03:36:10;;;;;;;;;;;;;;;;;;4942285;28;19967;-84
2023/04/09 03:38:55;;;;;;;;;;;;;;;;;;4941625;28;19904;-83
2023/04/09 03:41:29;;;;;;;;;;;;;;;;;;4924249;29;19946;-83
2023/04/09 03:44:04;;;;;;;;;;;;;;;;;;4921240;29;19926;-84
2023/04/09 03:46:36;;;;;;;;;;;;;;;;;;4918557;29;19915;-83
2023/04/09 03:49:05;;;;;;;;;;;;;;;;;;4900938;29;19923;-84
2023/04/09 03:51:38;;;;;;;;;;;;;;;;;;4932559;29;19960;-83
2023/04/09 03:54:04;;;;;;;;;;;;;;;;;;4937215;29;19900;-83
2023/04/09 03:56:30;;;;;;;;;;;;;;;;;;4924563;29;19974;-83
2023/04/09 03:58:59;;;;;;;;;;;;;;;;;;4926247;29;19907;-83
2023/04/09 04:01:33;;;;;;;;;;;;;;;;;;4943603;29;19926;-84
2023/04/09 04:04:03;;;;;;;;;;;;;;;;;;4943855;29;19935;-83
2023/04/09 04:06:40;;;;;;;;;;;;;;;;;;4933690;29;19907;-83
2023/04/09 04:09:20;;;;;;;;;;;;;;;;;;4926731;29;19971;-84
2023/04/09 04:11:55;;;;;;;;;;;;;;;;;;4925613;29;19907;-84
2023/04/09 04:14:23;;;;;;;;;;;;;;;;;;4909800;29;19951;-83
2023/04/09 04:16:54;;;;;;;;;;;;;;;;;;4909978;29;19903;-83
2023/04/09 04:19:25;;;;;;;;;;;;;;;;;;4939714;29;19922;-83
2023/04/09 04:21:51;;;;;;;;;;;;;;;;;;4925207;29;19979;-83
2023/04/09 04:24:16;;;;;;;;;;;;;;;;;;4908408;29;19916;-83
2023/04/09 04:26:42;;;;;;;;;;;;;;;;;;4907321;29;19904;-84
2023/04/09 04:29:11;;;;;;;;;;;;;;;;;;4907854;29;19915;-84
2023/04/09 04:31:49;;;;;;;;;;;;;;;;;;4924680;29;19904;-83
2023/04/09 04:34:18;;;;;;;;;;;;;;;;;;4906729;29;19916;-84
2023/04/09 04:36:48;;;;;;;;;;;;;;;;;;4939868;29;19900;-85
2023/04/09 04:39:13;;;;;;;;;;;;;;;;;;4908801;29;19907;-85
2023/04/09 04:41:55;;;;;;;;;;;;;;;;;;4909069;29;19906;-84
2023/04/09 04:44:27;;;;;;;;;;;;;;;;;;4923726;29;19975;-84
2023/04/09 04:47:05;;;;;;;;;;;;;;;;;;4909172;29;19928;-83
2023/04/09 04:49:32;;;;;;;;;;;;;;;;;;4920377;29;20500;-82
2023/04/09 04:52:00;;;;;;;;;;;;;;;;;;4919959;29;19916;-83
2023/04/09 04:54:25;;;;;;;;;;;;;;;;;;4909947;29;19966;-82
2023/04/09 04:56:55;;;;;;;;;;;;;;;;;;4944704;28;19923;-82
2023/04/09 04:59:33;;;;;;;;;;;;;;;;;;4915088;28;19911;-82
2023/04/09 05:02:03;;;;;;;;;;;;;;;;;;4944789;28;19910;-82
2023/04/09 05:04:34;;;;;;;;;;;;;;;;;;4928365;28;19922;-83
2023/04/09 05:07:00;;;;;;;;;;;;;;;;;;4928993;28;19903;-84
2023/04/09 05:09:25;;;;;;;;;;;;;;;;;;4944349;28;19927;-82
2023/04/09 05:12:04;;;;;;;;;;;;;;;;;;4928796;28;19911;-82
2023/04/09 05:14:30;;;;;;;;;;;;;;;;;;4927925;29;19904;-83
2023/04/09 05:16:55;;;;;;;;;;;;;;;;;;4943692;29;19903;-84
2023/04/09 05:19:30;;;;;;;;;;;;;;;;;;4944270;29;19919;-84
2023/04/09 05:21:59;;;;;;;;;;;;;;;;;;4943970;28;19903;-83
2023/04/09 05:24:25;;;;;;;;;;;;;;;;;;4942884;28;19961;-83
2023/04/09 05:27:01;;;;;;;;;;;;;;;;;;4941460;29;19915;-83
2023/04/09 05:29:29;;;;;;;;;;;;;;;;;;4938970;29;19926;-83
2023/04/09 05:31:55;;;;;;;;;;;;;;;;;;4922062;29;19903;-83
2023/04/09 05:34:31;;;;;;;;;;;;;;;;;;4936944;29;19939;-83
2023/04/09 05:36:56;;;;;;;;;;;;;;;;;;4937476;29;19915;-83
2023/04/09 05:39:23;;;;;;;;;;;;;;;;;;4921320;29;19915;-83
2023/04/09 05:41:51;;;;;;;;;;;;;;;;;;4901025;29;19921;-82
2023/04/09 05:44:16;;;;;;;;;;;;;;;;;;4917848;29;19918;-83
2023/04/09 05:46:45;;;;;;;;;;;;;;;;;;4916698;29;19919;-83
2023/04/09 05:49:13;;;;;;;;;;;;;;;;;;4901354;29;19915;-84
2023/04/09 05:51:42;;;;;;;;;;;;;;;;;;4931987;29;19923;-84
2023/04/09 05:54:08;;;;;;;;;;;;;;;;;;4918491;29;19915;-83
2023/04/09 05:56:36;;;;;;;;;;;;;;;;;;4905041;29;19926;-83
2023/04/09 05:59:02;;;;;;;;;;;;;;;;;;4933503;29;19978;-82
2023/04/09 06:01:31;;;;;;;;;;;;;;;;;;4921878;29;19915;-82
2023/04/09 06:03:56;;;;;;;;;;;;;;;;;;4922599;29;19922;-84
2023/04/09 06:06:32;;;;;;;;;;;;;;;;;;4935929;29;19923;-83
2023/04/09 06:09:02;;;;;;;;;;;;;;;;;;4921319;29;19923;-83
2023/04/09 06:11:28;;;;;;;;;;;;;;;;;;4908000;29;19915;-83
2023/04/09 06:13:54;;;;;;;;;;;;;;;;;;4940605;29;19913;-83
2023/04/09 06:16:20;;;;;;;;;;;;;;;;;;4941136;29;19899;-83
2023/04/09 06:18:52;;;;;;;;;;;;;;;;;;4941214;29;19919;-84
2023/04/09 06:21:18;;;;;;;;;;;;;;;;;;4919379;29;19927;-84
2023/04/09 06:23:44;;;;;;;;;;;;;;;;;;4938248;29;19988;-83
2023/04/09 06:26:10;;;;;;;;;;;;;;;;;;4921807;29;19922;-83
2023/04/09 06:28:39;;;;;;;;;;;;;;;;;;4939049;29;19915;-83
2023/04/09 06:31:04;;;;;;;;;;;;;;;;;;4921151;29;19919;-83
2023/04/09 06:33:30;;;;;;;;;;;;;;;;;;4938903;29;19900;-82
2023/04/09 06:35:56;;;;;;;;;;;;;;;;;;4922628;29;19923;-83
2023/04/09 06:38:21;;;;;;;;;;;;;;;;;;4936167;29;19942;-84
2023/04/09 06:48:53;;;;;;;;;;;;;;;;;;5079231;23;19911;-85
2023/04/09 07:21:42;;;;;;;;;;;;;;;;;;5939968;23;20263;-90
2023/04/09 07:32:34;;;;;;;;;;;;;;;;;;5900272;23;20247;-89
2023/04/09 07:37:41;;;;;;;;;;;;;;;;;;5973408;23;19949;-82
2023/04/09 07:45:31;;;;;;;;;;;;;;;;;;5924243;23;19921;-84
2023/04/09 07:56:11;;;;;;;;;;;;;;;;;;5491191;23;19915;-91
2023/04/09 07:58:39;;;;;;;;;;;;;;;;;;4937215;28;19919;-93
2023/04/09 08:01:05;;;;;;;;;;;;;;;;;;4897104;29;19923;-91
2023/04/09 08:03:30;;;;;;;;;;;;;;;;;;4893908;29;19923;-89
2023/04/09 08:05:56;;;;;;;;;;;;;;;;;;4894533;29;19915;-91
2023/04/09 08:08:21;;;;;;;;;;;;;;;;;;4888131;29;20048;-90
2023/04/09 08:10:47;;;;;;;;;;;;;;;;;;4884649;29;19915;-91
2023/04/09 08:13:15;;;;;;;;;;;;;;;;;;4917197;29;19922;-93
2023/04/09 08:15:41;;;;;;;;;;;;;;;;;;4884618;29;19916;-91
2023/04/09 08:18:06;;;;;;;;;;;;;;;;;;4884763;29;19926;-91
2023/04/09 08:20:32;;;;;;;;;;;;;;;;;;4883895;29;19962;-90
2023/04/09 08:22:58;;;;;;;;;;;;;;;;;;4900471;29;19915;-90
2023/04/09 08:25:23;;;;;;;;;;;;;;;;;;4886035;29;20447;-90
2023/04/09 08:27:49;;;;;;;;;;;;;;;;;;4904262;29;19943;-91
2023/04/09 08:30:14;;;;;;;;;;;;;;;;;;4905687;29;19943;-91
2023/04/09 08:32:40;;;;;;;;;;;;;;;;;;4921811;28;19920;-90
2023/04/09 08:35:06;;;;;;;;;;;;;;;;;;4905688;29;19920;-93
2023/04/09 08:37:32;;;;;;;;;;;;;;;;;;4890281;29;19948;-91
2023/04/09 08:39:58;;;;;;;;;;;;;;;;;;4890537;29;19915;-91
2023/04/09 08:42:23;;;;;;;;;;;;;;;;;;4890073;29;19911;-90
2023/04/09 08:44:49;;;;;;;;;;;;;;;;;;4906724;29;19948;-90
2023/04/09 08:47:14;;;;;;;;;;;;;;;;;;4892055;29;19920;-91
2023/04/09 08:49:40;;;;;;;;;;;;;;;;;;4905619;29;20421;-90
2023/04/09 08:52:06;;;;;;;;;;;;;;;;;;4891945;29;20393;-90
2023/04/09 08:54:31;;;;;;;;;;;;;;;;;;4874785;29;19920;-90
2023/04/09 08:56:57;;;;;;;;;;;;;;;;;;4905362;29;19955;-90
2023/04/09 08:59:23;;;;;;;;;;;;;;;;;;4905019;29;19916;-89
2023/04/09 09:01:52;;;;;;;;;;;;;;;;;;4893324;29;19954;-90
2023/04/09 09:04:18;;;;;;;;;;;;;;;;;;4896397;29;19923;-85
2023/04/09 09:06:44;;;;;;;;;;;;;;;;;;4884739;29;19908;-85
2023/04/09 09:09:10;;;;;;;;;;;;;;;;;;4906460;29;19924;-91
2023/04/09 09:11:35;;;;;;;;;;;;;;;;;;4906451;29;19947;-91
2023/04/09 09:14:03;;;;;;;;;;;;;;;;;;4881721;29;19995;-90
2023/04/09 09:16:28;;;;;;;;;;;;;;;;;;4881140;29;20080;-91
2023/04/09 09:18:55;;;;;;;;;;;;;;;;;;4900771;29;20265;-88
2023/04/09 09:21:20;;;;;;;;;;;;;;;;;;4912637;29;19912;-87
2023/04/09 09:31:52;;;;;;;;;;;;;;;;;;5600030;23;19931;-90
2023/04/09 09:34:17;;;;;;;;;;;;;;;;;;4912337;28;19903;-89
2023/04/09 09:36:42;;;;;;;;;;;;;;;;;;4927419;29;19918;-92
2023/04/09 09:39:11;;;;;;;;;;;;;;;;;;4911502;28;19998;-89
2023/04/09 09:41:37;;;;;;;;;;;;;;;;;;4906526;29;20018;-91
2023/04/09 09:44:05;;;;;;;;;;;;;;;;;;4891758;29;19914;-92
2023/04/09 09:46:34;;;;;;;;;;;;;;;;;;4914932;29;19923;-92
2023/04/09 09:48:59;;;;;;;;;;;;;;;;;;4910814;29;19924;-91
2023/04/09 09:51:26;;;;;;;;;;;;;;;;;;4899883;29;20443;-91
2023/04/09 09:53:52;;;;;;;;;;;;;;;;;;4855286;29;19922;-92
2023/04/09 09:56:17;;;;;;;;;;;;;;;;;;4852435;29;20003;-91
2023/04/09 09:58:42;;;;;;;;;;;;;;;;;;4853155;29;19940;-91
2023/04/09 10:01:11;;;;;;;;;;;;;;;;;;4851532;29;20403;-92
2023/04/09 10:03:37;;;;;;;;;;;;;;;;;;4850891;29;19915;-93
2023/04/09 10:06:03;;;;;;;;;;;;;;;;;;4882298;29;20337;-93
2023/04/09 10:08:28;;;;;;;;;;;;;;;;;;4859892;29;19965;-92
2023/04/09 10:10:54;;;;;;;;;;;;;;;;;;4865757;29;19980;-92
2023/04/09 10:13:20;;;;;;;;;;;;;;;;;;4865252;29;19916;-93
2023/04/09 10:15:46;;;;;;;;;;;;;;;;;;4865379;29;20422;-91
2023/04/09 10:18:11;;;;;;;;;;;;;;;;;;4865360;29;19916;-92
2023/04/09 10:20:37;;;;;;;;;;;;;;;;;;4865699;29;19928;-91
2023/04/09 10:23:02;;;;;;;;;;;;;;;;;;4851592;29;20002;-91
2023/04/09 10:25:28;;;;;;;;;;;;;;;;;;4855682;29;19922;-93
2023/04/09 10:27:53;;;;;;;;;;;;;;;;;;4900018;29;19930;-91
2023/04/09 10:30:19;;;;;;;;;;;;;;;;;;4899509;29;19911;-91
2023/04/09 10:32:44;;;;;;;;;;;;;;;;;;4898485;29;19919;-91
2023/04/09 10:35:10;;;;;;;;;;;;;;;;;;4884097;29;19942;-91
2023/04/09 10:37:36;;;;;;;;;;;;;;;;;;4898964;29;19950;-90
2023/04/09 10:40:01;;;;;;;;;;;;;;;;;;4898363;29;20022;-89
2023/04/09 10:42:27;;;;;;;;;;;;;;;;;;4882080;29;19923;-90
2023/04/09 10:44:52;;;;;;;;;;;;;;;;;;4882474;29;19923;-85
2023/04/09 10:47:18;;;;;;;;;;;;;;;;;;4913038;29;20114;-85
2023/04/09 10:49:46;;;;;;;;;;;;;;;;;;4882241;29;19947;-85
2023/04/09 10:52:14;;;;;;;;;;;;;;;;;;4914083;29;19998;-87
2023/04/09 10:54:42;;;;;;;;;;;;;;;;;;4899177;29;19979;-88
2023/04/09 10:57:08;;;;;;;;;;;;;;;;;;4899482;29;20411;-88
2023/04/09 10:59:33;;;;;;;;;;;;;;;;;;4883365;29;19915;-87
2023/04/09 11:01:58;;;;;;;;;;;;;;;;;;4898197;29;19925;-88
2023/04/09 11:04:24;;;;;;;;;;;;;;;;;;4899305;29;19919;-87
2023/04/09 11:06:49;;;;;;;;;;;;;;;;;;4883030;29;20018;-86
2023/04/09 11:09:15;;;;;;;;;;;;;;;;;;4884573;29;19967;-86
2023/04/09 11:11:40;;;;;;;;;;;;;;;;;;4903826;29;20331;-87
2023/04/09 11:14:06;;;;;;;;;;;;;;;;;;4891806;29;19974;-86
2023/04/09 11:16:31;;;;;;;;;;;;;;;;;;4895964;29;19916;-86
2023/04/09 11:18:56;;;;;;;;;;;;;;;;;;4912579;29;19916;-86
2023/04/09 11:21:22;;;;;;;;;;;;;;;;;;4927446;29;20396;-85
2023/04/09 11:23:47;;;;;;;;;;;;;;;;;;4919080;29;19915;-84
2023/04/09 11:26:13;;;;;;;;;;;;;;;;;;4901632;29;19900;-87
2023/04/09 11:28:47;;;;;;;;;;;;;;;;;;4903922;29;19927;-84
2023/04/09 11:31:13;;;;;;;;;;;;;;;;;;4895234;29;20256;-87
2023/04/09 11:33:38;;;;;;;;;;;;;;;;;;4914145;29;19975;-84
2023/04/09 11:36:05;;;;;;;;;;;;;;;;;;4900483;29;19915;-83
2023/04/09 11:38:30;;;;;;;;;;;;;;;;;;4901853;29;19916;-86
2023/04/09 11:40:55;;;;;;;;;;;;;;;;;;4912204;29;19928;-85
2023/04/09 11:43:21;;;;;;;;;;;;;;;;;;4930714;29;19903;-86
2023/04/09 11:45:47;;;;;;;;;;;;;;;;;;4913113;29;20010;-86
2023/04/09 11:48:12;;;;;;;;;;;;;;;;;;4887186;29;19915;-86
2023/04/09 11:50:38;;;;;;;;;;;;;;;;;;4883749;29;20010;-86
2023/04/09 11:53:03;;;;;;;;;;;;;;;;;;4899156;29;19955;-88
2023/04/09 11:55:28;;;;;;;;;;;;;;;;;;4888714;29;19942;-85
2023/04/09 11:57:54;;;;;;;;;;;;;;;;;;4892750;29;19920;-84
2023/04/09 12:00:19;;;;;;;;;;;;;;;;;;4896691;29;19963;-85
2023/04/09 12:02:45;;;;;;;;;;;;;;;;;;4897793;29;19920;-85
2023/04/09 12:05:10;;;;;;;;;;;;;;;;;;4901906;29;19919;-86
2023/04/09 12:07:36;;;;;;;;;;;;;;;;;;4922527;29;19947;-87
2023/04/09 12:10:01;;;;;;;;;;;;;;;;;;4905456;29;19903;-87
2023/04/09 12:12:27;;;;;;;;;;;;;;;;;;4933987;29;19915;-86
2023/04/09 12:14:55;;;;;;;;;;;;;;;;;;4914989;29;19915;-86
2023/04/09 12:17:21;;;;;;;;;;;;;;;;;;4896103;29;20011;-86
2023/04/09 12:19:46;;;;;;;;;;;;;;;;;;4894780;29;19923;-86
2023/04/09 12:22:12;;;;;;;;;;;;;;;;;;4927040;29;19916;-88
2023/04/09 12:24:37;;;;;;;;;;;;;;;;;;4911264;29;20393;-86
2023/04/09 12:27:03;;;;;;;;;;;;;;;;;;4908292;29;20280;-87
2023/04/09 12:29:29;;;;;;;;;;;;;;;;;;4912442;29;19927;-86
2023/04/09 12:31:58;;;;;;;;;;;;;;;;;;4915178;29;19944;-84
2023/04/09 12:34:26;;;;;;;;;;;;;;;;;;4912574;29;19916;-87
2023/04/09 12:36:51;;;;;;;;;;;;;;;;;;4899057;29;20372;-85
2023/04/09 12:39:17;;;;;;;;;;;;;;;;;;4910838;29;20012;-87
2023/04/09 12:41:45;;;;;;;;;;;;;;;;;;4925342;23;20310;-82
2023/04/09 12:44:10;;;;;;;;;;;;;;;;;;4903390;29;19986;-82
2023/04/09 12:46:36;;;;;;;;;;;;;;;;;;4903102;29;20375;-83
2023/04/09 12:49:01;;;;;;;;;;;;;;;;;;4919975;29;19945;-82
2023/04/09 12:51:27;;;;;;;;;;;;;;;;;;4918761;29;20034;-83
2023/04/09 12:53:52;;;;;;;;;;;;;;;;;;4934758;23;19999;-88
2023/04/09 12:56:18;;;;;;;;;;;;;;;;;;4887122;29;19971;-88
2023/04/09 12:58:43;;;;;;;;;;;;;;;;;;4917723;29;19915;-87
2023/04/09 13:01:08;;;;;;;;;;;;;;;;;;4899592;29;19963;-87
2023/04/09 13:03:34;;;;;;;;;;;;;;;;;;4899563;29;19946;-88
2023/04/09 13:05:59;;;;;;;;;;;;;;;;;;4899374;29;19915;-86
2023/04/09 13:08:25;;;;;;;;;;;;;;;;;;4915287;29;19916;-86
2023/04/09 13:10:50;;;;;;;;;;;;;;;;;;4900276;29;20273;-88
2023/04/09 13:13:16;;;;;;;;;;;;;;;;;;4899391;29;19922;-90
2023/04/09 13:15:42;;;;;;;;;;;;;;;;;;4890260;29;20399;-90
2023/04/09 13:18:10;;;;;;;;;;;;;;;;;;4934201;23;19919;-88
2023/04/09 13:20:36;;;;;;;;;;;;;;;;;;4927590;28;19927;-88
2023/04/09 13:23:02;;;;;;;;;;;;;;;;;;4918053;29;19915;-88
2023/04/09 13:25:30;;;;;;;;;;;;;;;;;;4901714;29;19918;-88
2023/04/09 13:27:56;;;;;;;;;;;;;;;;;;4917749;29;19915;-87
2023/04/09 13:30:21;;;;;;;;;;;;;;;;;;4916440;29;19971;-86
2023/04/09 13:32:53;;;;;;;;;;;;;;;;;;4918328;29;20379;-85
2023/04/09 13:35:22;;;;;;;;;;;;;;;;;;4917338;29;19915;-85
2023/04/09 13:37:50;;;;;;;;;;;;;;;;;;4918918;29;19915;-86
2023/04/09 13:40:16;;;;;;;;;;;;;;;;;;4917766;29;19927;-85
2023/04/09 13:42:42;;;;;;;;;;;;;;;;;;4901991;29;19919;-85
2023/04/09 13:45:07;;;;;;;;;;;;;;;;;;4917209;29;19915;-86
2023/04/09 13:47:33;;;;;;;;;;;;;;;;;;4932431;29;19915;-86
2023/04/09 13:49:58;;;;;;;;;;;;;;;;;;4933815;29;19983;-87
2023/04/09 13:52:47;;;;;;;;;;;;;;;;;;4918648;29;20439;-86
2023/04/09 13:55:16;;;;;;;;;;;;;;;;;;4918192;29;19915;-85
2023/04/09 13:57:41;;;;;;;;;;;;;;;;;;4934110;29;19911;-86
2023/04/09 14:00:07;;;;;;;;;;;;;;;;;;4917776;29;19926;-87
2023/04/09 14:02:34;;;;;;;;;;;;;;;;;;4932273;29;19922;-86
2023/04/09 14:05:02;;;;;;;;;;;;;;;;;;4900981;29;19915;-86
2023/04/09 14:07:27;;;;;;;;;;;;;;;;;;4916957;29;19916;-87
2023/04/09 14:09:53;;;;;;;;;;;;;;;;;;4885764;29;20032;-86
2023/04/09 14:12:18;;;;;;;;;;;;;;;;;;4932700;29;19915;-86
2023/04/09 14:14:44;;;;;;;;;;;;;;;;;;4901511;29;20076;-86
2023/04/09 14:17:10;;;;;;;;;;;;;;;;;;4884992;29;19915;-86
2023/04/09 14:19:38;;;;;;;;;;;;;;;;;;4917688;29;20398;-87
2023/04/09 14:22:06;;;;;;;;;;;;;;;;;;4886121;29;19947;-86
2023/04/09 14:24:38;;;;;;;;;;;;;;;;;;4901695;29;19921;-87
2023/04/09 14:27:04;;;;;;;;;;;;;;;;;;4900539;29;20378;-84
2023/04/09 14:29:29;;;;;;;;;;;;;;;;;;4901834;29;19923;-87
2023/04/09 14:31:55;;;;;;;;;;;;;;;;;;4901411;29;19915;-86
2023/04/09 14:34:20;;;;;;;;;;;;;;;;;;4918304;29;20129;-86
2023/04/09 14:36:46;;;;;;;;;;;;;;;;;;4897241;29;19922;-84
2023/04/09 14:39:14;;;;;;;;;;;;;;;;;;4882380;29;19972;-85
2023/04/09 14:41:40;;;;;;;;;;;;;;;;;;4900369;29;19927;-85
2023/04/09 14:44:05;;;;;;;;;;;;;;;;;;4886097;29;19923;-85
2023/04/09 14:46:31;;;;;;;;;;;;;;;;;;4883868;29;19920;-85
2023/04/09 14:48:56;;;;;;;;;;;;;;;;;;4914206;29;20285;-86
2023/04/09 14:51:21;;;;;;;;;;;;;;;;;;4885719;29;20451;-85
2023/04/09 14:53:47;;;;;;;;;;;;;;;;;;4885936;29;19915;-85
2023/04/09 14:56:12;;;;;;;;;;;;;;;;;;4890785;29;19923;-84
2023/04/09 14:58:38;;;;;;;;;;;;;;;;;;4887661;29;19912;-85
2023/04/09 15:01:03;;;;;;;;;;;;;;;;;;4866706;29;19968;-84
2023/04/09 15:03:29;;;;;;;;;;;;;;;;;;4882889;29;19919;-83
2023/04/09 15:05:55;;;;;;;;;;;;;;;;;;4900895;29;20281;-85
2023/04/09 15:08:21;;;;;;;;;;;;;;;;;;4887862;29;19926;-85
2023/04/09 15:10:46;;;;;;;;;;;;;;;;;;4900646;29;19915;-85
2023/04/09 15:13:15;;;;;;;;;;;;;;;;;;4917548;29;20299;-82
2023/04/09 15:15:42;;;;;;;;;;;;;;;;;;4918359;29;19915;-84
2023/04/09 15:18:08;;;;;;;;;;;;;;;;;;4905109;29;19931;-85
2023/04/09 15:20:33;;;;;;;;;;;;;;;;;;4909266;29;19919;-83
2023/04/09 15:22:59;;;;;;;;;;;;;;;;;;4943735;29;19916;-85
2023/04/09 15:25:24;;;;;;;;;;;;;;;;;;4946597;29;19951;-83
2023/04/09 15:27:50;;;;;;;;;;;;;;;;;;4913908;29;19971;-85
2023/04/09 15:30:15;;;;;;;;;;;;;;;;;;4900479;29;19915;-84
2023/04/09 15:32:41;;;;;;;;;;;;;;;;;;4948068;29;19919;-84
2023/04/09 15:35:06;;;;;;;;;;;;;;;;;;4933452;29;19926;-82
2023/04/09 15:37:32;;;;;;;;;;;;;;;;;;4935616;29;19978;-84
2023/04/09 15:39:57;;;;;;;;;;;;;;;;;;4903682;29;19919;-82
2023/04/09 15:42:23;;;;;;;;;;;;;;;;;;4935859;29;19975;-83
2023/04/09 15:44:48;;;;;;;;;;;;;;;;;;4949613;29;19933;-84
2023/04/09 15:47:14;;;;;;;;;;;;;;;;;;4906032;29;20291;-84
2023/04/09 15:49:39;;;;;;;;;;;;;;;;;;4918481;29;20239;-85
2023/04/09 15:52:05;;;;;;;;;;;;;;;;;;4917970;29;20425;-85
2023/04/09 15:54:31;;;;;;;;;;;;;;;;;;4903062;29;19926;-85
2023/04/09 15:56:56;;;;;;;;;;;;;;;;;;4904200;29;19915;-85
2023/04/09 15:59:22;;;;;;;;;;;;;;;;;;4904742;29;20283;-84
2023/04/09 16:01:47;;;;;;;;;;;;;;;;;;4938044;29;19919;-85
2023/04/09 16:04:13;;;;;;;;;;;;;;;;;;4919572;29;19946;-85
2023/04/09 16:06:38;;;;;;;;;;;;;;;;;;4935780;29;19962;-87
2023/04/09 16:09:04;;;;;;;;;;;;;;;;;;4920161;29;19979;-85
2023/04/09 16:11:29;;;;;;;;;;;;;;;;;;4903898;29;20001;-85
2023/04/09 16:13:56;;;;;;;;;;;;;;;;;;4935823;29;19919;-83
2023/04/09 16:16:21;;;;;;;;;;;;;;;;;;4919992;29;20402;-85
2023/04/09 16:18:47;;;;;;;;;;;;;;;;;;4919912;29;20067;-85
2023/04/09 16:21:12;;;;;;;;;;;;;;;;;;4920088;29;19926;-85
2023/04/09 16:23:38;;;;;;;;;;;;;;;;;;4904020;29;19915;-85
2023/04/09 16:26:03;;;;;;;;;;;;;;;;;;4903832;29;20294;-85
2023/04/09 16:28:29;;;;;;;;;;;;;;;;;;4919585;29;19923;-85
2023/04/09 16:30:54;;;;;;;;;;;;;;;;;;4904314;29;20431;-86
2023/04/09 16:33:20;;;;;;;;;;;;;;;;;;4900423;29;19994;-87
2023/04/09 16:35:45;;;;;;;;;;;;;;;;;;4902477;29;19958;-87
2023/04/09 16:38:11;;;;;;;;;;;;;;;;;;4918019;29;19919;-84
2023/04/09 16:40:36;;;;;;;;;;;;;;;;;;4902380;29;19920;-85
2023/04/09 16:43:02;;;;;;;;;;;;;;;;;;4872775;29;19915;-86
2023/04/09 16:45:27;;;;;;;;;;;;;;;;;;4919660;29;19916;-88
2023/04/09 16:47:53;;;;;;;;;;;;;;;;;;4901388;29;19951;-86
2023/04/09 16:50:19;;;;;;;;;;;;;;;;;;4928116;29;20013;-86
2023/04/09 16:52:44;;;;;;;;;;;;;;;;;;4888523;29;19915;-86
2023/04/09 16:55:10;;;;;;;;;;;;;;;;;;4908342;29;19923;-86
2023/04/09 16:57:35;;;;;;;;;;;;;;;;;;4906743;29;20256;-88
2023/04/09 17:00:01;;;;;;;;;;;;;;;;;;4938319;29;19923;-87
2023/04/09 17:02:27;;;;;;;;;;;;;;;;;;4909610;29;19921;-87
2023/04/09 17:04:52;;;;;;;;;;;;;;;;;;4910821;29;19998;-87
2023/04/09 17:07:18;;;;;;;;;;;;;;;;;;4901394;29;20395;-87
2023/04/09 17:09:43;;;;;;;;;;;;;;;;;;4872518;29;19922;-88
2023/04/09 17:12:09;;;;;;;;;;;;;;;;;;4887147;29;19922;-87
2023/04/09 17:14:35;;;;;;;;;;;;;;;;;;4887179;29;20281;-88
2023/04/09 17:17:01;;;;;;;;;;;;;;;;;;4887394;29;19926;-89
2023/04/09 17:19:26;;;;;;;;;;;;;;;;;;4904789;29;19923;-87
2023/04/09 17:21:52;;;;;;;;;;;;;;;;;;4901249;29;19919;-87
2023/04/09 17:24:17;;;;;;;;;;;;;;;;;;4870051;29;20296;-88
2023/04/09 17:26:43;;;;;;;;;;;;;;;;;;4903222;29;20398;-88
2023/04/09 17:29:09;;;;;;;;;;;;;;;;;;4891091;29;19966;-88
2023/04/09 17:31:34;;;;;;;;;;;;;;;;;;4890780;29;19915;-85
2023/04/09 17:34:00;;;;;;;;;;;;;;;;;;4910276;29;19966;-88
2023/04/09 17:36:26;;;;;;;;;;;;;;;;;;4909165;29;20390;-85
2023/04/09 17:38:52;;;;;;;;;;;;;;;;;;4893698;29;19974;-89
2023/04/09 17:41:17;;;;;;;;;;;;;;;;;;4891264;29;19919;-89
2023/04/09 17:43:43;;;;;;;;;;;;;;;;;;4890229;29;20339;-90
2023/04/09 17:46:08;;;;;;;;;;;;;;;;;;4888162;29;19915;-91
2023/04/09 17:48:34;;;;;;;;;;;;;;;;;;4887377;29;19979;-89
2023/04/09 17:51:00;;;;;;;;;;;;;;;;;;4887573;29;19970;-90
2023/04/09 17:53:25;;;;;;;;;;;;;;;;;;4887666;29;19915;-89
2023/04/09 17:55:51;;;;;;;;;;;;;;;;;;4886963;29;20002;-89
2023/04/09 17:58:17;;;;;;;;;;;;;;;;;;4887596;29;19978;-90
2023/04/09 18:00:43;;;;;;;;;;;;;;;;;;4910767;29;20367;-91
2023/04/09 18:03:08;;;;;;;;;;;;;;;;;;4869848;29;20384;-90
2023/04/09 18:05:34;;;;;;;;;;;;;;;;;;4885677;29;19987;-89
2023/04/09 18:08:01;;;;;;;;;;;;;;;;;;4885948;29;20484;-91
2023/04/09 18:10:26;;;;;;;;;;;;;;;;;;4870943;29;19916;-91
2023/04/09 18:12:52;;;;;;;;;;;;;;;;;;4873225;29;19921;-92
2023/04/09 18:15:18;;;;;;;;;;;;;;;;;;4920028;29;19939;-91